sensor_id;sensor_type;location;lat;lon;timestamp;temperature;humidity
30037;DHT22;36325;51.512;-0.382;2023-02-28T00:00:54;3.00;99.90
30037;DHT22;36325;51.512;-0.382;2023-02-28T00:05:49;3.00;99.90
30037;DHT22;36325;51.512;-0.382;2023-02-28T00:08:16;3.00;99.90
30037;DHT22;36325;51.512;-0.382;2023-02-28T00:10:43;3.00;99.90
30037;DHT22;36325;51.512;-0.382;2023-02-28T00:13:11;3.00;99.90
30037;DHT22;36325;51.512;-0.382;2023-02-28T00:15:38;2.90;99.90
30037;DHT22;36325;51.512;-0.382;2023-02-28T00:18:09;3.00;99.90
30037;DHT22;36325;51.512;-0.382;2023-02-28T00:20:36;2.90;99.90
30037;DHT22;36325;51.512;-0.382;2023-02-28T00:23:03;2.90;99.90
30037;DHT22;36325;51.512;-0.382;2023-02-28T00:25:31;2.90;99.90
30037;DHT22;36325;51.512;-0.382;2023-02-28T00:27:58;2.80;99.90
30037;DHT22;36325;51.512;-0.382;2023-02-28T00:30:25;2.80;99.90
30037;DHT22;36325;51.512;-0.382;2023-02-28T00:32:52;2.80;99.90
30037;DHT22;36325;51.512;-0.382;2023-02-28T00:35:20;2.80;99.90
30037;DHT22;36325;51.512;-0.382;2023-02-28T00:37:48;2.80;99.90
30037;DHT22;36325;51.512;-0.382;2023-02-28T00:40:16;2.80;99.90
30037;DHT22;36325;51.512;-0.382;2023-02-28T00:42:43;2.80;99.90
30037;DHT22;36325;51.512;-0.382;2023-02-28T00:45:10;2.70;99.90
30037;DHT22;36325;51.512;-0.382;2023-02-28T00:47:38;2.70;99.90
30037;DHT22;36325;51.512;-0.382;2023-02-28T00:50:06;2.70;99.90
30037;DHT22;36325;51.512;-0.382;2023-02-28T00:52:36;2.70;99.90
30037;DHT22;36325;51.512;-0.382;2023-02-28T00:55:03;2.70;99.90
30037;DHT22;36325;51.512;-0.382;2023-02-28T00:57:32;2.70;99.90
30037;DHT22;36325;51.512;-0.382;2023-02-28T00:59:59;5.30;99.90
30037;DHT22;36325;51.512;-0.382;2023-02-28T01:02:27;2.60;99.90
30037;DHT22;36325;51.512;-0.382;2023-02-28T01:04:54;2.60;99.90
30037;DHT22;36325;51.512;-0.382;2023-02-28T01:07:21;2.60;99.90
30037;DHT22;36325;51.512;-0.382;2023-02-28T01:09:48;2.60;99.90
30037;DHT22;36325;51.512;-0.382;2023-02-28T01:12:16;2.70;99.90
30037;DHT22;36325;51.512;-0.382;2023-02-28T01:14:46;2.60;99.90
30037;DHT22;36325;51.512;-0.382;2023-02-28T01:17:13;2.60;99.90
30037;DHT22;36325;51.512;-0.382;2023-02-28T01:22:09;2.50;99.90
30037;DHT22;36325;51.512;-0.382;2023-02-28T01:24:37;2.50;99.90
30037;DHT22;36325;51.512;-0.382;2023-02-28T01:27:04;2.50;99.90
30037;DHT22;36325;51.512;-0.382;2023-02-28T01:34:27;2.50;99.90
30037;DHT22;36325;51.512;-0.382;2023-02-28T01:39:21;2.50;99.90
30037;DHT22;36325;51.512;-0.382;2023-02-28T01:41:49;2.50;99.90
30037;DHT22;36325;51.512;-0.382;2023-02-28T01:47:22;2.50;99.90
30037;DHT22;36325;51.512;-0.382;2023-02-28T01:49:50;2.50;99.90
30037;DHT22;36325;51.512;-0.382;2023-02-28T01:52:19;2.50;99.90
30037;DHT22;36325;51.512;-0.382;2023-02-28T01:54:59;2.40;99.90
30037;DHT22;36325;51.512;-0.382;2023-02-28T01:57:34;2.40;99.90
30037;DHT22;36325;51.512;-0.382;2023-02-28T02:02:42;2.50;99.90
30037;DHT22;36325;51.512;-0.382;2023-02-28T02:05:14;2.50;99.90
30037;DHT22;36325;51.512;-0.382;2023-02-28T02:07:43;2.40;99.90
30037;DHT22;36325;51.512;-0.382;2023-02-28T02:10:16;2.40;99.90
30037;DHT22;36325;51.512;-0.382;2023-02-28T02:26:36;2.40;99.90
30037;DHT22;36325;51.512;-0.382;2023-02-28T02:34:40;2.40;99.90
30037;DHT22;36325;51.512;-0.382;2023-02-28T02:39:45;2.30;99.90
30037;DHT22;36325;51.512;-0.382;2023-02-28T02:42:28;2.30;99.90
30037;DHT22;36325;51.512;-0.382;2023-02-28T02:45:03;2.30;99.90
30037;DHT22;36325;51.512;-0.382;2023-02-28T02:47:33;2.30;99.90
30037;DHT22;36325;51.512;-0.382;2023-02-28T02:50:06;2.40;99.90
30037;DHT22;36325;51.512;-0.382;2023-02-28T02:52:40;2.40;99.90
30037;DHT22;36325;51.512;-0.382;2023-02-28T02:55:11;2.40;99.90
30037;DHT22;36325;51.512;-0.382;2023-02-28T02:57:50;2.40;99.90
30037;DHT22;36325;51.512;-0.382;2023-02-28T03:00:22;2.40;99.90
30037;DHT22;36325;51.512;-0.382;2023-02-28T03:02:52;2.40;99.90
30037;DHT22;36325;51.512;-0.382;2023-02-28T03:05:27;2.40;99.90
30037;DHT22;36325;51.512;-0.382;2023-02-28T03:07:55;2.40;99.90
30037;DHT22;36325;51.512;-0.382;2023-02-28T03:10:43;2.40;99.90
30037;DHT22;36325;51.512;-0.382;2023-02-28T03:30:42;2.20;99.90
30037;DHT22;36325;51.512;-0.382;2023-02-28T03:33:24;2.20;99.90
30037;DHT22;36325;51.512;-0.382;2023-02-28T03:36:04;2.20;99.90
30037;DHT22;36325;51.512;-0.382;2023-02-28T03:38:37;2.20;99.90
30037;DHT22;36325;51.512;-0.382;2023-02-28T03:41:14;2.20;99.90
30037;DHT22;36325;51.512;-0.382;2023-02-28T03:43:46;2.20;99.90
30037;DHT22;36325;51.512;-0.382;2023-02-28T03:46:19;2.30;99.90
30037;DHT22;36325;51.512;-0.382;2023-02-28T03:49:06;2.30;99.90
30037;DHT22;36325;51.512;-0.382;2023-02-28T03:51:36;1.00;99.90
30037;DHT22;36325;51.512;-0.382;2023-02-28T03:54:26;2.30;99.90
30037;DHT22;36325;51.512;-0.382;2023-02-28T03:57:22;2.30;99.90
30037;DHT22;36325;51.512;-0.382;2023-02-28T03:59:54;2.30;99.90
30037;DHT22;36325;51.512;-0.382;2023-02-28T04:02:27;2.40;99.90
30037;DHT22;36325;51.512;-0.382;2023-02-28T04:07:24;2.40;99.90
30037;DHT22;36325;51.512;-0.382;2023-02-28T04:09:52;2.40;99.90
30037;DHT22;36325;51.512;-0.382;2023-02-28T04:12:19;2.40;99.90
30037;DHT22;36325;51.512;-0.382;2023-02-28T04:14:46;2.40;99.90
30037;DHT22;36325;51.512;-0.382;2023-02-28T04:17:13;2.40;99.90
30037;DHT22;36325;51.512;-0.382;2023-02-28T04:19:40;2.40;99.90
30037;DHT22;36325;51.512;-0.382;2023-02-28T04:22:08;2.40;99.90
30037;DHT22;36325;51.512;-0.382;2023-02-28T04:24:36;2.40;99.90
30037;DHT22;36325;51.512;-0.382;2023-02-28T04:27:03;2.40;99.90
30037;DHT22;36325;51.512;-0.382;2023-02-28T04:29:31;2.40;99.90
30037;DHT22;36325;51.512;-0.382;2023-02-28T04:32:02;2.40;99.90
30037;DHT22;36325;51.512;-0.382;2023-02-28T04:34:31;2.40;99.90
30037;DHT22;36325;51.512;-0.382;2023-02-28T04:42:09;2.40;99.90
30037;DHT22;36325;51.512;-0.382;2023-02-28T04:44:36;2.40;99.90
30037;DHT22;36325;51.512;-0.382;2023-02-28T04:47:03;2.40;99.90
30037;DHT22;36325;51.512;-0.382;2023-02-28T04:49:30;2.40;99.90
30037;DHT22;36325;51.512;-0.382;2023-02-28T04:51:57;2.40;99.90
30037;DHT22;36325;51.512;-0.382;2023-02-28T04:54:25;2.40;99.90
30037;DHT22;36325;51.512;-0.382;2023-02-28T04:56:52;2.40;99.90
30037;DHT22;36325;51.512;-0.382;2023-02-28T04:59:19;2.40;99.90
30037;DHT22;36325;51.512;-0.382;2023-02-28T05:01:48;2.40;99.90
30037;DHT22;36325;51.512;-0.382;2023-02-28T05:04:16;2.40;99.90
30037;DHT22;36325;51.512;-0.382;2023-02-28T05:06:44;2.50;99.90
30037;DHT22;36325;51.512;-0.382;2023-02-28T05:09:11;2.50;99.90
30037;DHT22;36325;51.512;-0.382;2023-02-28T05:11:39;2.50;99.90
30037;DHT22;36325;51.512;-0.382;2023-02-28T05:14:12;2.50;99.90
30037;DHT22;36325;51.512;-0.382;2023-02-28T05:16:51;2.50;99.90
30037;DHT22;36325;51.512;-0.382;2023-02-28T05:19:23;2.50;99.90
30037;DHT22;36325;51.512;-0.382;2023-02-28T05:21:52;2.50;99.90
30037;DHT22;36325;51.512;-0.382;2023-02-28T05:24:20;2.50;99.90
30037;DHT22;36325;51.512;-0.382;2023-02-28T05:26:51;2.50;99.90
30037;DHT22;36325;51.512;-0.382;2023-02-28T05:29:19;2.60;99.90
30037;DHT22;36325;51.512;-0.382;2023-02-28T05:31:46;2.60;99.90
30037;DHT22;36325;51.512;-0.382;2023-02-28T05:34:14;2.50;99.90
30037;DHT22;36325;51.512;-0.382;2023-02-28T05:36:43;2.50;99.90
30037;DHT22;36325;51.512;-0.382;2023-02-28T05:39:10;2.60;99.90
30037;DHT22;36325;51.512;-0.382;2023-02-28T05:41:43;2.60;99.90
30037;DHT22;36325;51.512;-0.382;2023-02-28T05:44:11;2.60;99.90
30037;DHT22;36325;51.512;-0.382;2023-02-28T05:46:39;2.60;99.90
30037;DHT22;36325;51.512;-0.382;2023-02-28T05:49:06;2.60;99.90
30037;DHT22;36325;51.512;-0.382;2023-02-28T05:51:35;2.60;99.90
30037;DHT22;36325;51.512;-0.382;2023-02-28T05:54:03;2.60;99.90
30037;DHT22;36325;51.512;-0.382;2023-02-28T05:56:30;2.60;99.90
30037;DHT22;36325;51.512;-0.382;2023-02-28T05:58:58;2.60;99.90
30037;DHT22;36325;51.512;-0.382;2023-02-28T06:01:37;2.60;99.90
30037;DHT22;36325;51.512;-0.382;2023-02-28T06:04:06;2.50;99.90
30037;DHT22;36325;51.512;-0.382;2023-02-28T06:06:38;2.60;99.90
30037;DHT22;36325;51.512;-0.382;2023-02-28T06:09:06;2.50;99.90
30037;DHT22;36325;51.512;-0.382;2023-02-28T06:11:33;2.50;99.90
30037;DHT22;36325;51.512;-0.382;2023-02-28T06:14:01;2.50;99.90
30037;DHT22;36325;51.512;-0.382;2023-02-28T06:16:29;2.40;99.90
30037;DHT22;36325;51.512;-0.382;2023-02-28T06:18:58;2.40;99.90
30037;DHT22;36325;51.512;-0.382;2023-02-28T06:21:26;2.40;99.90
30037;DHT22;36325;51.512;-0.382;2023-02-28T06:23:58;2.40;99.90
30037;DHT22;36325;51.512;-0.382;2023-02-28T06:26:26;2.30;99.90
30037;DHT22;36325;51.512;-0.382;2023-02-28T06:31:22;2.40;99.90
30037;DHT22;36325;51.512;-0.382;2023-02-28T06:33:52;2.40;99.90
30037;DHT22;36325;51.512;-0.382;2023-02-28T06:36:19;2.50;99.90
30037;DHT22;36325;51.512;-0.382;2023-02-28T06:38:47;2.50;99.90
30037;DHT22;36325;51.512;-0.382;2023-02-28T06:41:18;2.60;99.90
30037;DHT22;36325;51.512;-0.382;2023-02-28T06:43:45;2.50;99.90
30037;DHT22;36325;51.512;-0.382;2023-02-28T06:46:13;2.60;99.90
30037;DHT22;36325;51.512;-0.382;2023-02-28T06:48:43;2.60;99.90
30037;DHT22;36325;51.512;-0.382;2023-02-28T06:51:19;2.60;99.90
30037;DHT22;36325;51.512;-0.382;2023-02-28T06:53:51;2.70;99.90
30037;DHT22;36325;51.512;-0.382;2023-02-28T06:56:18;2.70;99.90
30037;DHT22;36325;51.512;-0.382;2023-02-28T06:58:48;2.70;99.90
30037;DHT22;36325;51.512;-0.382;2023-02-28T07:01:16;2.80;99.90
30037;DHT22;36325;51.512;-0.382;2023-02-28T07:03:45;2.80;99.90
30037;DHT22;36325;51.512;-0.382;2023-02-28T07:06:12;2.80;99.90
30037;DHT22;36325;51.512;-0.382;2023-02-28T07:08:39;2.80;99.90
30037;DHT22;36325;51.512;-0.382;2023-02-28T07:11:08;2.90;99.90
30037;DHT22;36325;51.512;-0.382;2023-02-28T07:13:35;2.90;99.90
30037;DHT22;36325;51.512;-0.382;2023-02-28T07:16:05;3.00;99.90
30037;DHT22;36325;51.512;-0.382;2023-02-28T07:18:32;3.10;99.90
30037;DHT22;36325;51.512;-0.382;2023-02-28T07:21:02;3.10;99.90
30037;DHT22;36325;51.512;-0.382;2023-02-28T07:23:30;3.10;99.90
30037;DHT22;36325;51.512;-0.382;2023-02-28T07:25:57;3.20;99.90
30037;DHT22;36325;51.512;-0.382;2023-02-28T07:28:26;3.30;99.90
30037;DHT22;36325;51.512;-0.382;2023-02-28T07:30:54;3.30;99.90
30037;DHT22;36325;51.512;-0.382;2023-02-28T07:33:21;3.40;99.90
30037;DHT22;36325;51.512;-0.382;2023-02-28T07:35:48;3.40;99.90
30037;DHT22;36325;51.512;-0.382;2023-02-28T07:38:15;3.50;99.90
30037;DHT22;36325;51.512;-0.382;2023-02-28T07:40:42;3.60;99.90
30037;DHT22;36325;51.512;-0.382;2023-02-28T07:43:10;3.80;99.90
30037;DHT22;36325;51.512;-0.382;2023-02-28T07:45:38;3.70;99.90
30037;DHT22;36325;51.512;-0.382;2023-02-28T07:50:34;4.10;99.90
30037;DHT22;36325;51.512;-0.382;2023-02-28T07:53:01;4.10;99.90
30037;DHT22;36325;51.512;-0.382;2023-02-28T07:55:30;4.20;99.90
30037;DHT22;36325;51.512;-0.382;2023-02-28T07:57:58;4.30;99.90
30037;DHT22;36325;51.512;-0.382;2023-02-28T08:05:20;4.70;99.90
30037;DHT22;36325;51.512;-0.382;2023-02-28T08:07:49;4.90;99.90
30037;DHT22;36325;51.512;-0.382;2023-02-28T08:10:17;5.00;99.90
30037;DHT22;36325;51.512;-0.382;2023-02-28T08:15:12;4.90;99.90
30037;DHT22;36325;51.512;-0.382;2023-02-28T08:20:08;5.00;99.90
30037;DHT22;36325;51.512;-0.382;2023-02-28T08:22:37;5.00;99.90
30037;DHT22;36325;51.512;-0.382;2023-02-28T08:25:05;5.10;99.90
30037;DHT22;36325;51.512;-0.382;2023-02-28T08:27:34;6.30;99.90
30037;DHT22;36325;51.512;-0.382;2023-02-28T08:30:03;5.30;99.90
30037;DHT22;36325;51.512;-0.382;2023-02-28T08:32:32;5.60;99.90
30037;DHT22;36325;51.512;-0.382;2023-02-28T08:37:28;5.80;99.90
30037;DHT22;36325;51.512;-0.382;2023-02-28T08:42:24;5.90;99.90
30037;DHT22;36325;51.512;-0.382;2023-02-28T08:47:22;6.20;99.90
30037;DHT22;36325;51.512;-0.382;2023-02-28T08:49:50;6.20;99.90
30037;DHT22;36325;51.512;-0.382;2023-02-28T08:52:17;6.30;99.90
30037;DHT22;36325;51.512;-0.382;2023-02-28T08:57:13;6.40;99.90
30037;DHT22;36325;51.512;-0.382;2023-02-28T08:59:40;6.60;99.90
30037;DHT22;36325;51.512;-0.382;2023-02-28T09:02:09;6.60;99.90
30037;DHT22;36325;51.512;-0.382;2023-02-28T09:04:39;6.70;99.90
30037;DHT22;36325;51.512;-0.382;2023-02-28T09:09:34;6.80;99.90
30037;DHT22;36325;51.512;-0.382;2023-02-28T09:12:02;6.80;99.90
30037;DHT22;36325;51.512;-0.382;2023-02-28T09:14:29;6.90;99.90
30037;DHT22;36325;51.512;-0.382;2023-02-28T09:16:58;6.90;99.90
30037;DHT22;36325;51.512;-0.382;2023-02-28T09:19:25;6.90;99.90
30037;DHT22;36325;51.512;-0.382;2023-02-28T09:26:48;7.00;99.90
30037;DHT22;36325;51.512;-0.382;2023-02-28T09:29:33;7.00;99.90
30037;DHT22;36325;51.512;-0.382;2023-02-28T09:32:01;7.10;99.90
30037;DHT22;36325;51.512;-0.382;2023-02-28T09:34:28;7.10;99.90
30037;DHT22;36325;51.512;-0.382;2023-02-28T09:39:25;7.30;99.90
30037;DHT22;36325;51.512;-0.382;2023-02-28T09:41:55;7.50;99.90
30037;DHT22;36325;51.512;-0.382;2023-02-28T09:44:25;7.50;99.90
30037;DHT22;36325;51.512;-0.382;2023-02-28T09:46:58;7.90;99.90
30037;DHT22;36325;51.512;-0.382;2023-02-28T09:49:39;8.00;99.90
30037;DHT22;36325;51.512;-0.382;2023-02-28T09:52:17;8.00;99.90
30037;DHT22;36325;51.512;-0.382;2023-02-28T09:54:45;8.00;99.90
30037;DHT22;36325;51.512;-0.382;2023-02-28T09:57:35;8.00;99.90
30037;DHT22;36325;51.512;-0.382;2023-02-28T10:00:24;8.10;99.90
30037;DHT22;36325;51.512;-0.382;2023-02-28T10:05:51;8.10;99.90
30037;DHT22;36325;51.512;-0.382;2023-02-28T10:11:01;8.60;99.90
30037;DHT22;36325;51.512;-0.382;2023-02-28T10:16:24;9.00;99.90
30037;DHT22;36325;51.512;-0.382;2023-02-28T10:18:54;9.00;99.90
30037;DHT22;36325;51.512;-0.382;2023-02-28T10:23:59;9.20;99.90
30037;DHT22;36325;51.512;-0.382;2023-02-28T10:26:31;9.20;99.90
30037;DHT22;36325;51.512;-0.382;2023-02-28T10:29:08;9.30;99.90
30037;DHT22;36325;51.512;-0.382;2023-02-28T10:31:35;9.30;99.90
30037;DHT22;36325;51.512;-0.382;2023-02-28T10:34:02;9.40;99.90
30037;DHT22;36325;51.512;-0.382;2023-02-28T10:36:33;9.30;99.90
30037;DHT22;36325;51.512;-0.382;2023-02-28T10:39:41;9.20;99.90
30037;DHT22;36325;51.512;-0.382;2023-02-28T10:42:25;9.10;99.90
30037;DHT22;36325;51.512;-0.382;2023-02-28T10:45:09;8.90;99.90
30037;DHT22;36325;51.512;-0.382;2023-02-28T10:47:40;8.20;99.90
30037;DHT22;36325;51.512;-0.382;2023-02-28T10:50:35;8.80;99.90
30037;DHT22;36325;51.512;-0.382;2023-02-28T10:56:02;8.80;99.90
30037;DHT22;36325;51.512;-0.382;2023-02-28T11:01:43;8.80;99.90
30037;DHT22;36325;51.512;-0.382;2023-02-28T11:04:31;8.70;99.90
30037;DHT22;36325;51.512;-0.382;2023-02-28T11:07:05;8.70;99.90
30037;DHT22;36325;51.512;-0.382;2023-02-28T11:09:35;8.70;99.90
30037;DHT22;36325;51.512;-0.382;2023-02-28T11:12:06;8.60;99.90
30037;DHT22;36325;51.512;-0.382;2023-02-28T11:14:49;8.50;99.90
30037;DHT22;36325;51.512;-0.382;2023-02-28T11:17:29;8.50;99.90
30037;DHT22;36325;51.512;-0.382;2023-02-28T11:19:59;8.50;99.90
30037;DHT22;36325;51.512;-0.382;2023-02-28T11:22:35;8.40;99.90
30037;DHT22;36325;51.512;-0.382;2023-02-28T11:25:30;8.40;99.90
30037;DHT22;36325;51.512;-0.382;2023-02-28T11:28:03;8.50;99.90
30037;DHT22;36325;51.512;-0.382;2023-02-28T11:30:36;8.50;99.90
30037;DHT22;36325;51.512;-0.382;2023-02-28T11:36:16;8.50;99.90
30037;DHT22;36325;51.512;-0.382;2023-02-28T11:38:49;8.40;99.90
30037;DHT22;36325;51.512;-0.382;2023-02-28T11:41:35;8.40;99.90
30037;DHT22;36325;51.512;-0.382;2023-02-28T11:49:32;8.70;99.90
30037;DHT22;36325;51.512;-0.382;2023-02-28T11:55:02;8.80;99.90
30037;DHT22;36325;51.512;-0.382;2023-02-28T12:05:34;9.30;99.90
30037;DHT22;36325;51.512;-0.382;2023-02-28T12:08:31;9.30;99.90
30037;DHT22;36325;51.512;-0.382;2023-02-28T12:14:03;9.30;99.90
30037;DHT22;36325;51.512;-0.382;2023-02-28T12:27:25;8.80;99.90
30037;DHT22;36325;51.512;-0.382;2023-02-28T12:30:04;8.70;99.90
30037;DHT22;36325;51.512;-0.382;2023-02-28T12:32:41;8.70;99.90
30037;DHT22;36325;51.512;-0.382;2023-02-28T12:37:47;8.70;99.90
30037;DHT22;36325;51.512;-0.382;2023-02-28T12:40:20;8.70;99.90
30037;DHT22;36325;51.512;-0.382;2023-02-28T12:43:02;8.80;99.90
30037;DHT22;36325;51.512;-0.382;2023-02-28T12:45:44;8.80;99.90
30037;DHT22;36325;51.512;-0.382;2023-02-28T12:51:07;8.80;99.90
30037;DHT22;36325;51.512;-0.382;2023-02-28T12:56:43;9.00;99.90
30037;DHT22;36325;51.512;-0.382;2023-02-28T12:59:23;8.90;99.90
30037;DHT22;36325;51.512;-0.382;2023-02-28T13:01:57;8.90;99.90
30037;DHT22;36325;51.512;-0.382;2023-02-28T13:09:57;9.00;99.90
30037;DHT22;36325;51.512;-0.382;2023-02-28T13:12:26;8.10;99.90
30037;DHT22;36325;51.512;-0.382;2023-02-28T13:15:13;9.00;99.90
30037;DHT22;36325;51.512;-0.382;2023-02-28T13:17:48;8.90;99.90
30037;DHT22;36325;51.512;-0.382;2023-02-28T13:20:34;8.80;99.90
30037;DHT22;36325;51.512;-0.382;2023-02-28T13:23:03;8.80;99.90
30037;DHT22;36325;51.512;-0.382;2023-02-28T13:28:11;8.90;99.90
30037;DHT22;36325;51.512;-0.382;2023-02-28T13:39:01;9.00;99.90
30037;DHT22;36325;51.512;-0.382;2023-02-28T13:46:33;9.20;99.90
30037;DHT22;36325;51.512;-0.382;2023-02-28T14:06:28;9.50;99.90
30037;DHT22;36325;51.512;-0.382;2023-02-28T14:09:03;9.40;99.90
30037;DHT22;36325;51.512;-0.382;2023-02-28T14:11:37;11.70;99.90
30037;DHT22;36325;51.512;-0.382;2023-02-28T14:14:07;9.50;99.90
30037;DHT22;36325;51.512;-0.382;2023-02-28T14:16:47;9.40;99.90
30037;DHT22;36325;51.512;-0.382;2023-02-28T14:19:28;9.50;99.90
30037;DHT22;36325;51.512;-0.382;2023-02-28T14:30:31;9.30;99.90
30037;DHT22;36325;51.512;-0.382;2023-02-28T14:38:19;9.20;99.90
30037;DHT22;36325;51.512;-0.382;2023-02-28T14:40:51;9.20;99.90
30037;DHT22;36325;51.512;-0.382;2023-02-28T14:43:24;9.30;99.90
30037;DHT22;36325;51.512;-0.382;2023-02-28T14:45:58;11.80;99.90
30037;DHT22;36325;51.512;-0.382;2023-02-28T14:48:28;9.30;99.90
30037;DHT22;36325;51.512;-0.382;2023-02-28T14:51:00;9.20;99.90
30037;DHT22;36325;51.512;-0.382;2023-02-28T14:53:34;9.20;99.90
30037;DHT22;36325;51.512;-0.382;2023-02-28T14:56:02;9.20;99.90
30037;DHT22;36325;51.512;-0.382;2023-02-28T14:58:31;9.20;99.90
30037;DHT22;36325;51.512;-0.382;2023-02-28T15:01:01;9.20;99.90
30037;DHT22;36325;51.512;-0.382;2023-02-28T15:03:37;9.20;99.90
30037;DHT22;36325;51.512;-0.382;2023-02-28T15:06:13;9.20;99.90
30037;DHT22;36325;51.512;-0.382;2023-02-28T15:08:41;9.20;99.90
30037;DHT22;36325;51.512;-0.382;2023-02-28T15:13:44;9.20;99.90
30037;DHT22;36325;51.512;-0.382;2023-02-28T15:16:37;9.20;99.90
30037;DHT22;36325;51.512;-0.382;2023-02-28T15:19:14;9.20;99.90
30037;DHT22;36325;51.512;-0.382;2023-02-28T15:21:46;9.20;99.90
30037;DHT22;36325;51.512;-0.382;2023-02-28T15:27:20;9.20;99.90
30037;DHT22;36325;51.512;-0.382;2023-02-28T15:29:46;9.20;99.90
30037;DHT22;36325;51.512;-0.382;2023-02-28T15:32:30;9.10;99.90
30037;DHT22;36325;51.512;-0.382;2023-02-28T15:34:59;9.10;99.90
30037;DHT22;36325;51.512;-0.382;2023-02-28T15:37:52;9.10;99.90
30037;DHT22;36325;51.512;-0.382;2023-02-28T15:40:24;9.00;99.90
30037;DHT22;36325;51.512;-0.382;2023-02-28T15:43:15;9.10;99.90
30037;DHT22;36325;51.512;-0.382;2023-02-28T15:45:49;9.10;99.90
30037;DHT22;36325;51.512;-0.382;2023-02-28T15:51:17;9.10;99.90
30037;DHT22;36325;51.512;-0.382;2023-02-28T15:54:06;9.10;99.90
30037;DHT22;36325;51.512;-0.382;2023-02-28T15:56:49;9.10;99.90
30037;DHT22;36325;51.512;-0.382;2023-02-28T15:59:25;9.00;99.90
30037;DHT22;36325;51.512;-0.382;2023-02-28T16:05:18;9.10;99.90
30037;DHT22;36325;51.512;-0.382;2023-02-28T16:07:48;9.00;99.90
30037;DHT22;36325;51.512;-0.382;2023-02-28T16:10:15;9.00;99.90
30037;DHT22;36325;51.512;-0.382;2023-02-28T16:12:43;9.00;99.90
30037;DHT22;36325;51.512;-0.382;2023-02-28T16:15:20;9.10;99.90
30037;DHT22;36325;51.512;-0.382;2023-02-28T16:20:18;9.00;99.90
30037;DHT22;36325;51.512;-0.382;2023-02-28T16:22:46;9.00;99.90
30037;DHT22;36325;51.512;-0.382;2023-02-28T16:25:16;9.00;99.90
30037;DHT22;36325;51.512;-0.382;2023-02-28T16:27:47;9.00;99.90
30037;DHT22;36325;51.512;-0.382;2023-02-28T16:30:23;9.00;99.90
30037;DHT22;36325;51.512;-0.382;2023-02-28T16:32:54;9.00;99.90
30037;DHT22;36325;51.512;-0.382;2023-02-28T16:35:22;9.00;99.90
30037;DHT22;36325;51.512;-0.382;2023-02-28T16:37:53;9.00;99.90
30037;DHT22;36325;51.512;-0.382;2023-02-28T16:40:25;9.00;99.90
30037;DHT22;36325;51.512;-0.382;2023-02-28T16:42:58;9.00;99.90
30037;DHT22;36325;51.512;-0.382;2023-02-28T16:45:28;9.00;99.90
30037;DHT22;36325;51.512;-0.382;2023-02-28T16:47:56;9.00;99.90
30037;DHT22;36325;51.512;-0.382;2023-02-28T16:50:26;9.00;99.90
30037;DHT22;36325;51.512;-0.382;2023-02-28T16:52:54;9.00;99.90
30037;DHT22;36325;51.512;-0.382;2023-02-28T16:55:23;8.90;99.90
30037;DHT22;36325;51.512;-0.382;2023-02-28T16:57:56;8.90;99.90
30037;DHT22;36325;51.512;-0.382;2023-02-28T17:00:26;8.90;99.90
30037;DHT22;36325;51.512;-0.382;2023-02-28T17:02:54;8.80;99.90
30037;DHT22;36325;51.512;-0.382;2023-02-28T17:10:21;8.70;99.90
30037;DHT22;36325;51.512;-0.382;2023-02-28T17:12:49;8.70;99.90
30037;DHT22;36325;51.512;-0.382;2023-02-28T17:15:18;8.70;99.90
30037;DHT22;36325;51.512;-0.382;2023-02-28T17:17:48;8.70;99.90
30037;DHT22;36325;51.512;-0.382;2023-02-28T17:20:21;8.70;99.90
30037;DHT22;36325;51.512;-0.382;2023-02-28T17:22:56;8.70;99.90
30037;DHT22;36325;51.512;-0.382;2023-02-28T17:25:24;8.70;99.90
30037;DHT22;36325;51.512;-0.382;2023-02-28T17:27:51;8.70;99.90
30037;DHT22;36325;51.512;-0.382;2023-02-28T17:30:24;8.60;99.90
30037;DHT22;36325;51.512;-0.382;2023-02-28T17:32:55;8.60;99.90
30037;DHT22;36325;51.512;-0.382;2023-02-28T17:35:23;8.60;99.90
30037;DHT22;36325;51.512;-0.382;2023-02-28T17:40:20;8.50;99.90
30037;DHT22;36325;51.512;-0.382;2023-02-28T17:42:48;8.50;99.90
30037;DHT22;36325;51.512;-0.382;2023-02-28T17:45:16;8.50;99.90
30037;DHT22;36325;51.512;-0.382;2023-02-28T17:47:47;8.50;99.90
30037;DHT22;36325;51.512;-0.382;2023-02-28T17:50:20;8.50;99.90
30037;DHT22;36325;51.512;-0.382;2023-02-28T17:52:48;8.40;99.90
30037;DHT22;36325;51.512;-0.382;2023-02-28T17:55:17;8.40;99.90
30037;DHT22;36325;51.512;-0.382;2023-02-28T18:00:15;8.30;99.90
30037;DHT22;36325;51.512;-0.382;2023-02-28T18:02:44;8.30;99.90
30037;DHT22;36325;51.512;-0.382;2023-02-28T18:05:12;8.30;99.90
30037;DHT22;36325;51.512;-0.382;2023-02-28T18:07:39;8.30;99.90
30037;DHT22;36325;51.512;-0.382;2023-02-28T18:10:17;8.30;99.90
30037;DHT22;36325;51.512;-0.382;2023-02-28T18:12:50;8.30;99.90
30037;DHT22;36325;51.512;-0.382;2023-02-28T18:15:18;8.20;99.90
30037;DHT22;36325;51.512;-0.382;2023-02-28T18:17:49;8.20;99.90
30037;DHT22;36325;51.512;-0.382;2023-02-28T18:20:17;8.20;99.90
30037;DHT22;36325;51.512;-0.382;2023-02-28T18:22:44;8.10;99.90
30037;DHT22;36325;51.512;-0.382;2023-02-28T18:27:45;8.10;99.90
30037;DHT22;36325;51.512;-0.382;2023-02-28T18:30:27;8.10;99.90
30037;DHT22;36325;51.512;-0.382;2023-02-28T18:33:00;8.10;99.90
30037;DHT22;36325;51.512;-0.382;2023-02-28T18:35:28;8.10;99.90
30037;DHT22;36325;51.512;-0.382;2023-02-28T18:38:12;8.10;99.90
30037;DHT22;36325;51.512;-0.382;2023-02-28T18:43:08;8.10;99.90
30037;DHT22;36325;51.512;-0.382;2023-02-28T18:45:37;8.00;99.90
30037;DHT22;36325;51.512;-0.382;2023-02-28T18:48:05;8.10;99.90
30037;DHT22;36325;51.512;-0.382;2023-02-28T18:50:32;8.10;99.90
30037;DHT22;36325;51.512;-0.382;2023-02-28T18:52:59;8.10;99.90
30037;DHT22;36325;51.512;-0.382;2023-02-28T18:55:31;8.00;99.90
30037;DHT22;36325;51.512;-0.382;2023-02-28T19:00:26;8.00;99.90
30037;DHT22;36325;51.512;-0.382;2023-02-28T19:02:54;8.00;99.90
30037;DHT22;36325;51.512;-0.382;2023-02-28T19:05:21;8.00;99.90
30037;DHT22;36325;51.512;-0.382;2023-02-28T19:07:50;8.00;99.90
30037;DHT22;36325;51.512;-0.382;2023-02-28T19:10:21;8.00;99.90
30037;DHT22;36325;51.512;-0.382;2023-02-28T19:12:49;8.00;99.90
30037;DHT22;36325;51.512;-0.382;2023-02-28T19:15:17;8.00;99.90
30037;DHT22;36325;51.512;-0.382;2023-02-28T19:17:45;8.00;99.90
30037;DHT22;36325;51.512;-0.382;2023-02-28T19:20:13;7.90;99.90
30037;DHT22;36325;51.512;-0.382;2023-02-28T19:22:41;8.00;99.90
30037;DHT22;36325;51.512;-0.382;2023-02-28T19:25:09;7.90;99.90
30037;DHT22;36325;51.512;-0.382;2023-02-28T19:27:37;7.90;99.90
30037;DHT22;36325;51.512;-0.382;2023-02-28T19:30:05;7.90;99.90
30037;DHT22;36325;51.512;-0.382;2023-02-28T19:32:33;7.90;99.90
30037;DHT22;36325;51.512;-0.382;2023-02-28T19:35:01;7.80;99.90
30037;DHT22;36325;51.512;-0.382;2023-02-28T19:37:29;7.90;99.90
30037;DHT22;36325;51.512;-0.382;2023-02-28T19:39:57;7.90;99.90
30037;DHT22;36325;51.512;-0.382;2023-02-28T19:42:24;7.90;99.90
30037;DHT22;36325;51.512;-0.382;2023-02-28T19:44:55;7.90;99.90
30037;DHT22;36325;51.512;-0.382;2023-02-28T19:47:23;7.80;99.90
30037;DHT22;36325;51.512;-0.382;2023-02-28T19:49:50;7.80;99.90
30037;DHT22;36325;51.512;-0.382;2023-02-28T19:52:22;7.80;99.90
30037;DHT22;36325;51.512;-0.382;2023-02-28T19:54:50;7.80;99.90
30037;DHT22;36325;51.512;-0.382;2023-02-28T19:57:18;7.80;99.90